Flight Track Log - Related Links

Times and Time Zones

All times are in EDT time to prevent confusion due to time zone crossing. See the BJS444 flight status page for this flight to view local times or setup timezone preferences in your user account.

Time Position Orientation Groundspeed Altitude Reporting Facility
EDT Latitude Longitude Course Direction KTS MPH feet Rate Location/Type
Sun 08:04:04 PM 42.3125 -84.3878 109° East 201 231 5,800  Level FAA TRACON SMA TRACON (SMA)
Sun 08:04:25 PM 42.3181 -84.3622 74° East 235 270 6,900 3,000 Climbing FAA TRACON SMA TRACON (SMA)
Sun 08:04:44 PM 42.3106 -84.3406 115° Southeast 235 270 7,800 3,538 Climbing FAA TRACON SMA TRACON (SMA)
Sun 08:05:04 PM 42.2844 -84.3194 149° Southeast 289 333 9,200 3,900 Climbing FAA TRACON SMA TRACON (SMA)
Sun 08:05:24 PM 42.2647 -84.3061 153° Southeast 262 302 10,400 3,300 Climbing FAA TRACON SMA TRACON (SMA)
Sun 08:05:44 PM 42.2464 -84.2950 156° South 279 321 11,400 3,450 Climbing FAA TRACON SMA TRACON (SMA)
Sun 08:06:04 PM 42.2150 -84.2731 153° Southeast 298 343 12,700 3,000 Climbing FAA TRACON SMA TRACON (SMA)
Sun 08:06:24 PM 42.1897 -84.2561 154° Southeast 332 382 13,400 1,950 Climbing FAA TRACON SMA TRACON (SMA)
Sun 08:06:44 PM 42.1633 -84.2386 154° Southeast 352 405 14,000 1,350 Climbing FAA TRACON SMA TRACON (SMA)
Sun 08:07:04 PM 42.1428 -84.2253 154° Southeast 353 406 14,300 450 Climbing FAA TRACON SMA TRACON (SMA)
Sun 08:07:24 PM 42.1428 -84.2253 143° Southeast 353 406 14,300 3,375 Level FAA TRACON SMA TRACON (SMA)
Sun 08:09:00 PM 42.0794 -83.6342 109° East  Level FlightAware Approximate
Sun 08:09:28 PM 41.8903 -84.0728 156° South 382 440 22,400  Level Cleveland Center
Sun 08:10:28 PM 41.7817 -84.0083 156° South 402 463 23,200 1,100 Climbing Cleveland Center
Sun 08:11:28 PM 41.6753 -83.9417 155° Southeast 423 487 24,600 700 Climbing Cleveland Center
Sun 08:12:28 PM 41.5686 -83.8778 156° South 429 494 24,600 -800 Level Cleveland Center
Sun 08:13:28 PM 41.4661 -83.8142 155° Southeast 423 487 23,000 -1,550 Descending Cleveland Center
Sun 08:14:28 PM 41.3617 -83.7511 156° South 417 480 21,500 -5,000 Descending Cleveland Center
Sun 08:15:28 PM 41.2569 -83.6906 157° South 417 480 13,000 -1,550 Descending Cleveland Center
Sun 08:16:28 PM 41.1542 -83.6306 156° South 417 480 18,400 2,150 Climbing Cleveland Center
Sun 08:17:28 PM 41.0681 -83.5797 156° South 398 458 17,300 -1,400 Descending Cleveland Center
Sun 08:18:28 PM 40.9717 -83.5175 154° Southeast 384 442 15,600 -1,700 Descending Cleveland Center
Sun 08:19:28 PM 40.8792 -83.4639 156° South 373 429 13,900 -1,650 Descending Cleveland Center
Sun 08:20:28 PM 40.7764 -83.4047 156° South 373 429 12,300 -1,550 Descending Cleveland Center
Sun 08:21:28 PM 40.6942 -83.3572 156° South 362 417 10,800 -1,329 Descending Cleveland Center
Sun 08:22:48 PM 40.6011 -83.3000 155° Southeast 286 329 9,200 -761 Descending Indianapolis Center
Sun 08:23:50 PM 40.5286 -83.2578 156° South 281 323 9,000 -109 Descending Indianapolis Center
Sun 08:24:38 PM 40.4667 -83.2239 157° South 274 315 9,000 -267 Level Indianapolis Center
Sun 08:25:20 PM 40.4203 -83.1964 156° South 274 315 8,600 -1,360 Descending Indianapolis Center
Sun 08:25:53 PM 40.3886 -83.1767 155° Southeast 272 313 7,300 -2,968 Descending Indianapolis Center
Sun 08:26:55 PM 40.3225 -83.1533 165° South 258 297 3,900 -2,390 Descending Indianapolis Center
Sun 08:27:56 PM 40.3044 -83.2283 253° West 239 275 2,400 -829 Descending Indianapolis Center
Sun 08:28:58 PM 40.2842 -83.2039 137° Southeast 189 217 2,200 -390 Descending Indianapolis Center
Sun 08:29:59 PM 40.2856 -83.1592 88° East 143 165 1,600 -488 Descending Indianapolis Center
Sun 08:31:01 PM 40.2808 -83.1144 98° East 132 152 1,200 -387 Descending Indianapolis Center

Login

Don't have an account? Register now (free) for customized features, flight alerts, and more!